This is the latest recevied weather packets stored in our database for station/object K7SPS-10. If no packets are shown the sender has not sent any weather packets the latest 10 day(s).
| Time | Temp. | Humidity | Pressure | Rain* | Wind** | Luminosity | Snow |
|---|---|---|---|---|---|---|---|
| 1777657897 | 18.33° C | 52% | 1021.8 hPa | 0 mm | - | 717 W/m² | - |
| 1777657594 | 18.33° C | 50% | 1022 hPa | 0 mm | - | 708 W/m² | - |
| 1777657291 | 18.33° C | 49% | 1022 hPa | 0 mm | - | 697 W/m² | - |
| 1777656989 | 17.78° C | 53% | 1022 hPa | 0 mm | - | 690 W/m² | - |
| 1777656685 | 17.78° C | 54% | 1022.1 hPa | 0 mm | - | 677 W/m² | - |
| 1777656381 | 17.78° C | 53% | 1022.1 hPa | 0 mm | - | 667 W/m² | - |
| 1777656076 | 17.22° C | 51% | 1022.1 hPa | 0 mm | - | 660 W/m² | - |
| 1777655773 | 16.67° C | 56% | 1022 hPa | 0 mm | - | 647 W/m² | - |
| 1777655470 | 16.67° C | 53% | 1022 hPa | 0 mm | - | 634 W/m² | - |
| 1777655167 | 17.22° C | 53% | 1022.3 hPa | 0 mm | - | 624 W/m² | - |
| 1777654864 | 16.11° C | 54% | 1022.1 hPa | 0 mm | - | 611 W/m² | - |
| 1777654561 | 16.11° C | 58% | 1022.1 hPa | 0 mm | - | 599 W/m² | - |
| 1777654258 | 16.11° C | 56% | 1022.2 hPa | 0 mm | - | 587 W/m² | - |
| 1777653956 | 15.56° C | 54% | 1022.2 hPa | 0 mm | - | 576 W/m² | - |
| 1777653652 | 15.56° C | 57% | 1022.1 hPa | 0 mm | - | 564 W/m² | - |
| 1777653349 | 15.56° C | 55% | 1022.1 hPa | 0 mm | - | 552 W/m² | - |
| 1777653046 | 15.56° C | 56% | 1022.2 hPa | 0 mm | - | 540 W/m² | - |
| 1777652743 | 15° C | 56% | 1022.3 hPa | 0 mm | - | 529 W/m² | - |
| 1777652439 | 14.44° C | 58% | 1022.2 hPa | 0 mm | - | 517 W/m² | - |
| 1777652137 | 14.44° C | 57% | 1022.2 hPa | 0 mm | - | 504 W/m² | - |
| 1777651833 | 13.89° C | 61% | 1022.3 hPa | 0 mm | - | 491 W/m² | - |
| 1777651530 | 13.89° C | 62% | 1022.6 hPa | 0 mm | - | 474 W/m² | - |
| 1777651227 | 13.89° C | 61% | 1022.2 hPa | 0 mm | - | 413 W/m² | - |
| 1777650923 | 13.33° C | 62% | 1022.4 hPa | 0 mm | - | 446 W/m² | - |
| 1777650621 | 14.44° C | 59% | 1022.3 hPa | 0 mm | - | 431 W/m² | - |
* Rain latest hour (hover to see other rain measurements)
** Current wind speed in m/s (hover to see current wind gust speed)